sensor_id;sensor_type;location;lat;lon;timestamp;P1;durP1;ratioP1;P2;durP2;ratioP2
38264;SDS011;24062;47.480;8.768;2022-08-26T00:02:08;5.10;;;4.13;;
38264;SDS011;24062;47.480;8.768;2022-08-26T00:04:36;4.80;;;4.40;;
38264;SDS011;24062;47.480;8.768;2022-08-26T00:07:04;5.07;;;4.73;;
38264;SDS011;24062;47.480;8.768;2022-08-26T00:09:31;5.87;;;4.50;;
38264;SDS011;24062;47.480;8.768;2022-08-26T00:11:58;8.23;;;4.97;;
38264;SDS011;24062;47.480;8.768;2022-08-26T00:14:25;5.33;;;4.93;;
38264;SDS011;24062;47.480;8.768;2022-08-26T00:16:52;4.80;;;4.50;;
38264;SDS011;24062;47.480;8.768;2022-08-26T00:19:20;6.60;;;5.20;;
38264;SDS011;24062;47.480;8.768;2022-08-26T00:21:47;5.00;;;4.60;;
38264;SDS011;24062;47.480;8.768;2022-08-26T00:24:16;5.80;;;5.30;;
38264;SDS011;24062;47.480;8.768;2022-08-26T00:26:44;4.67;;;4.27;;
38264;SDS011;24062;47.480;8.768;2022-08-26T00:29:11;5.93;;;4.53;;
38264;SDS011;24062;47.480;8.768;2022-08-26T00:31:39;10.53;;;4.37;;
38264;SDS011;24062;47.480;8.768;2022-08-26T00:34:06;4.93;;;4.00;;
38264;SDS011;24062;47.480;8.768;2022-08-26T00:36:34;6.50;;;4.40;;
38264;SDS011;24062;47.480;8.768;2022-08-26T00:39:01;6.10;;;4.37;;
38264;SDS011;24062;47.480;8.768;2022-08-26T00:41:29;4.67;;;4.27;;
38264;SDS011;24062;47.480;8.768;2022-08-26T00:43:56;5.07;;;4.30;;
38264;SDS011;24062;47.480;8.768;2022-08-26T00:46:24;4.23;;;3.93;;
38264;SDS011;24062;47.480;8.768;2022-08-26T00:48:56;4.53;;;4.23;;
38264;SDS011;24062;47.480;8.768;2022-08-26T00:51:26;4.43;;;4.10;;
38264;SDS011;24062;47.480;8.768;2022-08-26T00:53:54;5.73;;;4.30;;
38264;SDS011;24062;47.480;8.768;2022-08-26T00:56:25;5.93;;;4.73;;
38264;SDS011;24062;47.480;8.768;2022-08-26T00:58:58;5.03;;;4.63;;
38264;SDS011;24062;47.480;8.768;2022-08-26T01:01:28;10.20;;;4.77;;
38264;SDS011;24062;47.480;8.768;2022-08-26T01:03:55;6.00;;;4.63;;
38264;SDS011;24062;47.480;8.768;2022-08-26T01:06:22;4.80;;;4.47;;
38264;SDS011;24062;47.480;8.768;2022-08-26T01:08:50;5.27;;;4.87;;
38264;SDS011;24062;47.480;8.768;2022-08-26T01:11:17;5.40;;;5.00;;
38264;SDS011;24062;47.480;8.768;2022-08-26T01:13:45;5.90;;;4.40;;
38264;SDS011;24062;47.480;8.768;2022-08-26T01:16:15;12.03;;;4.37;;
38264;SDS011;24062;47.480;8.768;2022-08-26T01:18:42;4.60;;;4.20;;
38264;SDS011;24062;47.480;8.768;2022-08-26T01:21:12;5.67;;;4.50;;
38264;SDS011;24062;47.480;8.768;2022-08-26T01:23:45;4.87;;;4.47;;
38264;SDS011;24062;47.480;8.768;2022-08-26T01:26:15;4.57;;;4.17;;
38264;SDS011;24062;47.480;8.768;2022-08-26T01:28:44;4.13;;;3.70;;
38264;SDS011;24062;47.480;8.768;2022-08-26T01:31:15;5.70;;;5.20;;
38264;SDS011;24062;47.480;8.768;2022-08-26T01:33:45;4.90;;;4.53;;
38264;SDS011;24062;47.480;8.768;2022-08-26T01:36:17;4.70;;;4.30;;
38264;SDS011;24062;47.480;8.768;2022-08-26T01:38:45;5.10;;;4.67;;
38264;SDS011;24062;47.480;8.768;2022-08-26T01:41:12;4.87;;;4.47;;
38264;SDS011;24062;47.480;8.768;2022-08-26T01:43:40;5.63;;;5.17;;
38264;SDS011;24062;47.480;8.768;2022-08-26T01:46:10;5.13;;;4.73;;
38264;SDS011;24062;47.480;8.768;2022-08-26T01:48:38;5.07;;;4.73;;
38264;SDS011;24062;47.480;8.768;2022-08-26T01:51:08;9.33;;;5.30;;
38264;SDS011;24062;47.480;8.768;2022-08-26T01:53:36;5.50;;;5.10;;
38264;SDS011;24062;47.480;8.768;2022-08-26T01:56:05;5.27;;;4.87;;
38264;SDS011;24062;47.480;8.768;2022-08-26T01:58:35;6.73;;;5.20;;
38264;SDS011;24062;47.480;8.768;2022-08-26T02:01:06;5.10;;;4.70;;
38264;SDS011;24062;47.480;8.768;2022-08-26T02:03:35;4.87;;;4.47;;
38264;SDS011;24062;47.480;8.768;2022-08-26T02:06:08;6.73;;;5.27;;
38264;SDS011;24062;47.480;8.768;2022-08-26T02:08:36;4.87;;;4.57;;
38264;SDS011;24062;47.480;8.768;2022-08-26T02:11:07;5.17;;;4.77;;
38264;SDS011;24062;47.480;8.768;2022-08-26T02:13:36;6.20;;;5.10;;
38264;SDS011;24062;47.480;8.768;2022-08-26T02:16:05;5.00;;;4.60;;
38264;SDS011;24062;47.480;8.768;2022-08-26T02:18:34;5.10;;;4.70;;
38264;SDS011;24062;47.480;8.768;2022-08-26T02:21:05;5.63;;;5.10;;
38264;SDS011;24062;47.480;8.768;2022-08-26T02:23:34;5.93;;;5.43;;
38264;SDS011;24062;47.480;8.768;2022-08-26T02:26:02;4.83;;;4.37;;
38264;SDS011;24062;47.480;8.768;2022-08-26T02:28:35;4.87;;;4.47;;
38264;SDS011;24062;47.480;8.768;2022-08-26T02:31:05;6.17;;;5.13;;
38264;SDS011;24062;47.480;8.768;2022-08-26T02:33:32;5.40;;;5.03;;
38264;SDS011;24062;47.480;8.768;2022-08-26T02:36:00;7.43;;;5.80;;
38264;SDS011;24062;47.480;8.768;2022-08-26T02:38:28;5.67;;;5.27;;
38264;SDS011;24062;47.480;8.768;2022-08-26T02:40:55;4.70;;;4.40;;
38264;SDS011;24062;47.480;8.768;2022-08-26T02:43:22;5.30;;;4.90;;
38264;SDS011;24062;47.480;8.768;2022-08-26T02:45:50;6.10;;;4.83;;
38264;SDS011;24062;47.480;8.768;2022-08-26T02:48:17;5.53;;;5.03;;
38264;SDS011;24062;47.480;8.768;2022-08-26T02:50:46;5.10;;;4.70;;
38264;SDS011;24062;47.480;8.768;2022-08-26T02:53:13;4.80;;;4.40;;
38264;SDS011;24062;47.480;8.768;2022-08-26T02:55:41;4.63;;;4.23;;
38264;SDS011;24062;47.480;8.768;2022-08-26T02:58:08;6.13;;;4.90;;
38264;SDS011;24062;47.480;8.768;2022-08-26T03:00:36;8.40;;;5.23;;
38264;SDS011;24062;47.480;8.768;2022-08-26T03:03:05;5.10;;;4.80;;
38264;SDS011;24062;47.480;8.768;2022-08-26T03:05:32;6.10;;;5.37;;
38264;SDS011;24062;47.480;8.768;2022-08-26T03:07:59;5.60;;;5.10;;
38264;SDS011;24062;47.480;8.768;2022-08-26T03:10:26;5.50;;;5.10;;
38264;SDS011;24062;47.480;8.768;2022-08-26T03:12:57;6.27;;;5.67;;
38264;SDS011;24062;47.480;8.768;2022-08-26T03:15:24;5.40;;;5.07;;
38264;SDS011;24062;47.480;8.768;2022-08-26T03:17:52;8.97;;;5.37;;
38264;SDS011;24062;47.480;8.768;2022-08-26T03:20:21;7.83;;;5.50;;
38264;SDS011;24062;47.480;8.768;2022-08-26T03:22:48;4.90;;;4.33;;
38264;SDS011;24062;47.480;8.768;2022-08-26T03:25:17;5.33;;;4.83;;
38264;SDS011;24062;47.480;8.768;2022-08-26T03:27:45;5.70;;;5.10;;
38264;SDS011;24062;47.480;8.768;2022-08-26T03:30:12;4.90;;;4.50;;
38264;SDS011;24062;47.480;8.768;2022-08-26T03:32:58;5.77;;;5.37;;
38264;SDS011;24062;47.480;8.768;2022-08-26T03:35:27;5.40;;;4.67;;
38264;SDS011;24062;47.480;8.768;2022-08-26T03:37:54;6.13;;;5.40;;
38264;SDS011;24062;47.480;8.768;2022-08-26T03:40:21;5.57;;;5.10;;
38264;SDS011;24062;47.480;8.768;2022-08-26T03:42:48;5.43;;;4.93;;
38264;SDS011;24062;47.480;8.768;2022-08-26T03:45:16;6.00;;;5.50;;
38264;SDS011;24062;47.480;8.768;2022-08-26T03:47:44;5.87;;;5.37;;
38264;SDS011;24062;47.480;8.768;2022-08-26T03:50:13;5.90;;;5.50;;
38264;SDS011;24062;47.480;8.768;2022-08-26T03:52:43;6.00;;;5.37;;
38264;SDS011;24062;47.480;8.768;2022-08-26T03:55:11;5.77;;;5.30;;
38264;SDS011;24062;47.480;8.768;2022-08-26T03:57:38;6.07;;;5.23;;
38264;SDS011;24062;47.480;8.768;2022-08-26T04:00:06;5.93;;;5.33;;
38264;SDS011;24062;47.480;8.768;2022-08-26T04:02:37;7.63;;;5.60;;
38264;SDS011;24062;47.480;8.768;2022-08-26T04:05:04;7.20;;;5.47;;
38264;SDS011;24062;47.480;8.768;2022-08-26T04:07:32;6.37;;;5.87;;
38264;SDS011;24062;47.480;8.768;2022-08-26T04:10:00;5.40;;;4.90;;
38264;SDS011;24062;47.480;8.768;2022-08-26T04:12:28;5.80;;;5.30;;
38264;SDS011;24062;47.480;8.768;2022-08-26T04:14:54;6.00;;;5.60;;
38264;SDS011;24062;47.480;8.768;2022-08-26T04:17:22;5.83;;;5.43;;
38264;SDS011;24062;47.480;8.768;2022-08-26T04:19:50;6.40;;;5.70;;
38264;SDS011;24062;47.480;8.768;2022-08-26T04:22:18;6.37;;;5.87;;
38264;SDS011;24062;47.480;8.768;2022-08-26T04:24:45;6.50;;;5.90;;
38264;SDS011;24062;47.480;8.768;2022-08-26T04:27:13;6.57;;;5.97;;
38264;SDS011;24062;47.480;8.768;2022-08-26T04:29:40;6.10;;;5.50;;
38264;SDS011;24062;47.480;8.768;2022-08-26T04:32:08;7.70;;;6.60;;
38264;SDS011;24062;47.480;8.768;2022-08-26T04:34:35;6.90;;;6.10;;
38264;SDS011;24062;47.480;8.768;2022-08-26T04:37:03;6.20;;;5.80;;
38264;SDS011;24062;47.480;8.768;2022-08-26T04:39:31;6.03;;;5.53;;
38264;SDS011;24062;47.480;8.768;2022-08-26T04:41:58;6.07;;;5.67;;
38264;SDS011;24062;47.480;8.768;2022-08-26T04:44:28;11.53;;;6.70;;
38264;SDS011;24062;47.480;8.768;2022-08-26T04:46:56;13.10;;;6.90;;
38264;SDS011;24062;47.480;8.768;2022-08-26T04:49:23;6.80;;;6.30;;
38264;SDS011;24062;47.480;8.768;2022-08-26T04:51:51;8.00;;;7.40;;
38264;SDS011;24062;47.480;8.768;2022-08-26T04:54:18;7.27;;;6.53;;
38264;SDS011;24062;47.480;8.768;2022-08-26T04:56:45;7.23;;;6.60;;
38264;SDS011;24062;47.480;8.768;2022-08-26T04:59:14;6.90;;;6.40;;
38264;SDS011;24062;47.480;8.768;2022-08-26T05:01:44;9.23;;;6.20;;
38264;SDS011;24062;47.480;8.768;2022-08-26T05:04:12;7.10;;;6.60;;
38264;SDS011;24062;47.480;8.768;2022-08-26T05:06:39;8.60;;;6.53;;
38264;SDS011;24062;47.480;8.768;2022-08-26T05:09:06;6.80;;;6.30;;
38264;SDS011;24062;47.480;8.768;2022-08-26T05:11:33;6.57;;;6.00;;
38264;SDS011;24062;47.480;8.768;2022-08-26T05:14:01;7.00;;;6.50;;
38264;SDS011;24062;47.480;8.768;2022-08-26T05:16:30;7.17;;;6.53;;
38264;SDS011;24062;47.480;8.768;2022-08-26T05:18:58;7.60;;;6.50;;
38264;SDS011;24062;47.480;8.768;2022-08-26T05:21:25;7.00;;;6.47;;
38264;SDS011;24062;47.480;8.768;2022-08-26T05:23:53;6.70;;;6.20;;
38264;SDS011;24062;47.480;8.768;2022-08-26T05:26:21;6.87;;;5.90;;
38264;SDS011;24062;47.480;8.768;2022-08-26T05:28:50;6.30;;;5.80;;
38264;SDS011;24062;47.480;8.768;2022-08-26T05:31:18;6.30;;;5.80;;
38264;SDS011;24062;47.480;8.768;2022-08-26T05:33:47;5.50;;;5.10;;
38264;SDS011;24062;47.480;8.768;2022-08-26T05:36:17;6.33;;;5.83;;
38264;SDS011;24062;47.480;8.768;2022-08-26T05:38:45;5.73;;;5.27;;
38264;SDS011;24062;47.480;8.768;2022-08-26T05:41:14;6.50;;;5.90;;
38264;SDS011;24062;47.480;8.768;2022-08-26T05:43:42;5.83;;;5.40;;
38264;SDS011;24062;47.480;8.768;2022-08-26T05:46:10;6.40;;;6.00;;
38264;SDS011;24062;47.480;8.768;2022-08-26T05:48:37;5.90;;;5.40;;
38264;SDS011;24062;47.480;8.768;2022-08-26T05:51:05;6.63;;;5.53;;
38264;SDS011;24062;47.480;8.768;2022-08-26T05:53:35;10.63;;;5.20;;
38264;SDS011;24062;47.480;8.768;2022-08-26T05:56:03;7.80;;;6.30;;
38264;SDS011;24062;47.480;8.768;2022-08-26T05:58:32;6.90;;;6.40;;
38264;SDS011;24062;47.480;8.768;2022-08-26T06:01:00;5.20;;;4.80;;
38264;SDS011;24062;47.480;8.768;2022-08-26T06:03:29;6.00;;;5.40;;
38264;SDS011;24062;47.480;8.768;2022-08-26T06:05:57;6.00;;;5.60;;
38264;SDS011;24062;47.480;8.768;2022-08-26T06:08:28;7.00;;;6.13;;
38264;SDS011;24062;47.480;8.768;2022-08-26T06:10:58;5.57;;;4.97;;
38264;SDS011;24062;47.480;8.768;2022-08-26T06:13:26;5.30;;;4.90;;
38264;SDS011;24062;47.480;8.768;2022-08-26T06:15:54;6.03;;;5.43;;
38264;SDS011;24062;47.480;8.768;2022-08-26T06:18:23;6.93;;;5.40;;
38264;SDS011;24062;47.480;8.768;2022-08-26T06:20:56;5.50;;;5.00;;
38264;SDS011;24062;47.480;8.768;2022-08-26T06:23:25;5.90;;;5.40;;
38264;SDS011;24062;47.480;8.768;2022-08-26T06:26:12;8.33;;;4.60;;
38264;SDS011;24062;47.480;8.768;2022-08-26T06:28:41;4.97;;;4.57;;
38264;SDS011;24062;47.480;8.768;2022-08-26T06:31:09;4.23;;;3.83;;
38264;SDS011;24062;47.480;8.768;2022-08-26T06:33:36;4.43;;;4.13;;
38264;SDS011;24062;47.480;8.768;2022-08-26T06:36:03;4.70;;;4.30;;
38264;SDS011;24062;47.480;8.768;2022-08-26T06:38:30;4.63;;;4.00;;
38264;SDS011;24062;47.480;8.768;2022-08-26T06:40:57;4.60;;;3.67;;
38264;SDS011;24062;47.480;8.768;2022-08-26T06:43:26;4.33;;;3.93;;
38264;SDS011;24062;47.480;8.768;2022-08-26T06:46:00;4.87;;;4.47;;
38264;SDS011;24062;47.480;8.768;2022-08-26T06:48:29;6.50;;;4.30;;
38264;SDS011;24062;47.480;8.768;2022-08-26T06:51:03;4.50;;;4.10;;
38264;SDS011;24062;47.480;8.768;2022-08-26T06:53:31;5.00;;;4.60;;
38264;SDS011;24062;47.480;8.768;2022-08-26T06:56:00;4.40;;;4.10;;
38264;SDS011;24062;47.480;8.768;2022-08-26T06:58:30;4.30;;;3.93;;
38264;SDS011;24062;47.480;8.768;2022-08-26T07:00:57;4.47;;;4.13;;
38264;SDS011;24062;47.480;8.768;2022-08-26T07:03:24;6.00;;;3.83;;
38264;SDS011;24062;47.480;8.768;2022-08-26T07:05:51;4.43;;;4.13;;
38264;SDS011;24062;47.480;8.768;2022-08-26T07:08:18;3.70;;;3.40;;
38264;SDS011;24062;47.480;8.768;2022-08-26T07:10:46;6.87;;;4.27;;
38264;SDS011;24062;47.480;8.768;2022-08-26T07:13:13;5.13;;;4.73;;
38264;SDS011;24062;47.480;8.768;2022-08-26T07:15:41;4.57;;;4.13;;
38264;SDS011;24062;47.480;8.768;2022-08-26T07:18:08;6.03;;;5.43;;
38264;SDS011;24062;47.480;8.768;2022-08-26T07:20:36;6.40;;;4.43;;
38264;SDS011;24062;47.480;8.768;2022-08-26T07:23:05;7.30;;;4.70;;
38264;SDS011;24062;47.480;8.768;2022-08-26T07:25:32;6.50;;;4.43;;
38264;SDS011;24062;47.480;8.768;2022-08-26T07:28:03;6.13;;;4.43;;
38264;SDS011;24062;47.480;8.768;2022-08-26T07:30:30;5.33;;;4.20;;
38264;SDS011;24062;47.480;8.768;2022-08-26T07:32:58;4.97;;;4.07;;
38264;SDS011;24062;47.480;8.768;2022-08-26T07:35:25;9.83;;;4.57;;
38264;SDS011;24062;47.480;8.768;2022-08-26T07:37:52;7.47;;;4.53;;
38264;SDS011;24062;47.480;8.768;2022-08-26T07:40:19;7.20;;;4.03;;
38264;SDS011;24062;47.480;8.768;2022-08-26T07:42:46;4.63;;;4.23;;
38264;SDS011;24062;47.480;8.768;2022-08-26T07:45:13;4.53;;;4.23;;
38264;SDS011;24062;47.480;8.768;2022-08-26T07:47:40;4.30;;;3.90;;
38264;SDS011;24062;47.480;8.768;2022-08-26T07:50:08;5.27;;;4.77;;
38264;SDS011;24062;47.480;8.768;2022-08-26T07:52:35;5.43;;;4.17;;
38264;SDS011;24062;47.480;8.768;2022-08-26T07:55:03;5.23;;;4.50;;
38264;SDS011;24062;47.480;8.768;2022-08-26T07:57:31;4.30;;;3.90;;
38264;SDS011;24062;47.480;8.768;2022-08-26T07:59:59;8.00;;;4.30;;
38264;SDS011;24062;47.480;8.768;2022-08-26T08:02:27;4.47;;;4.07;;
38264;SDS011;24062;47.480;8.768;2022-08-26T08:04:55;6.10;;;4.40;;
38264;SDS011;24062;47.480;8.768;2022-08-26T08:07:24;4.20;;;3.80;;
38264;SDS011;24062;47.480;8.768;2022-08-26T08:09:51;6.70;;;4.00;;
38264;SDS011;24062;47.480;8.768;2022-08-26T08:12:18;4.80;;;4.17;;
38264;SDS011;24062;47.480;8.768;2022-08-26T08:14:46;4.90;;;4.30;;
38264;SDS011;24062;47.480;8.768;2022-08-26T08:17:13;7.33;;;4.10;;
38264;SDS011;24062;47.480;8.768;2022-08-26T08:19:41;6.90;;;3.83;;
38264;SDS011;24062;47.480;8.768;2022-08-26T08:22:08;4.70;;;4.30;;
38264;SDS011;24062;47.480;8.768;2022-08-26T08:24:36;7.83;;;4.50;;
38264;SDS011;24062;47.480;8.768;2022-08-26T08:27:03;4.40;;;4.00;;
38264;SDS011;24062;47.480;8.768;2022-08-26T08:29:30;7.07;;;4.13;;
38264;SDS011;24062;47.480;8.768;2022-08-26T08:31:57;5.57;;;5.07;;
38264;SDS011;24062;47.480;8.768;2022-08-26T08:34:25;3.93;;;3.63;;
38264;SDS011;24062;47.480;8.768;2022-08-26T08:36:53;5.00;;;3.80;;
38264;SDS011;24062;47.480;8.768;2022-08-26T08:39:21;4.30;;;3.90;;
38264;SDS011;24062;47.480;8.768;2022-08-26T08:41:54;4.20;;;3.80;;
38264;SDS011;24062;47.480;8.768;2022-08-26T08:44:35;4.70;;;4.30;;
38264;SDS011;24062;47.480;8.768;2022-08-26T08:47:09;5.67;;;3.80;;
38264;SDS011;24062;47.480;8.768;2022-08-26T08:49:42;3.60;;;3.30;;
38264;SDS011;24062;47.480;8.768;2022-08-26T08:52:10;3.30;;;3.00;;
38264;SDS011;24062;47.480;8.768;2022-08-26T08:54:46;5.10;;;3.57;;
38264;SDS011;24062;47.480;8.768;2022-08-26T08:57:16;4.57;;;3.70;;
38264;SDS011;24062;47.480;8.768;2022-08-26T08:59:52;4.40;;;3.13;;
38264;SDS011;24062;47.480;8.768;2022-08-26T09:02:28;6.60;;;3.50;;
38264;SDS011;24062;47.480;8.768;2022-08-26T09:05:07;5.33;;;4.00;;
38264;SDS011;24062;47.480;8.768;2022-08-26T09:07:47;4.17;;;3.23;;
38264;SDS011;24062;47.480;8.768;2022-08-26T09:10:33;3.70;;;3.40;;
38264;SDS011;24062;47.480;8.768;2022-08-26T09:13:04;7.90;;;3.20;;
38264;SDS011;24062;47.480;8.768;2022-08-26T09:15:39;6.83;;;3.40;;
38264;SDS011;24062;47.480;8.768;2022-08-26T09:18:16;8.73;;;4.20;;
38264;SDS011;24062;47.480;8.768;2022-08-26T09:20:55;3.43;;;3.03;;
38264;SDS011;24062;47.480;8.768;2022-08-26T09:23:24;3.20;;;3.00;;
38264;SDS011;24062;47.480;8.768;2022-08-26T09:25:52;4.60;;;3.40;;
38264;SDS011;24062;47.480;8.768;2022-08-26T09:28:25;4.10;;;3.30;;
38264;SDS011;24062;47.480;8.768;2022-08-26T09:31:01;3.70;;;3.40;;
38264;SDS011;24062;47.480;8.768;2022-08-26T09:33:36;3.90;;;3.40;;
38264;SDS011;24062;47.480;8.768;2022-08-26T09:36:15;9.17;;;3.93;;
38264;SDS011;24062;47.480;8.768;2022-08-26T09:38:47;5.30;;;3.57;;
38264;SDS011;24062;47.480;8.768;2022-08-26T09:41:23;8.40;;;3.83;;
38264;SDS011;24062;47.480;8.768;2022-08-26T09:44:10;4.63;;;4.20;;
38264;SDS011;24062;47.480;8.768;2022-08-26T09:46:43;5.13;;;4.63;;
38264;SDS011;24062;47.480;8.768;2022-08-26T09:49:27;5.47;;;4.00;;
38264;SDS011;24062;47.480;8.768;2022-08-26T09:52:07;5.47;;;4.57;;
38264;SDS011;24062;47.480;8.768;2022-08-26T09:54:45;5.65;;;4.72;;
38264;SDS011;24062;47.480;8.768;2022-08-26T09:57:27;7.65;;;4.20;;
38264;SDS011;24062;47.480;8.768;2022-08-26T09:59:57;3.63;;;3.33;;
38264;SDS011;24062;47.480;8.768;2022-08-26T10:02:37;6.80;;;4.45;;
38264;SDS011;24062;47.480;8.768;2022-08-26T10:05:09;6.10;;;5.07;;
38264;SDS011;24062;47.480;8.768;2022-08-26T10:07:44;6.30;;;4.45;;
38264;SDS011;24062;47.480;8.768;2022-08-26T10:10:16;4.30;;;3.90;;
38264;SDS011;24062;47.480;8.768;2022-08-26T10:12:52;3.63;;;3.33;;
38264;SDS011;24062;47.480;8.768;2022-08-26T10:15:26;6.25;;;4.40;;
38264;SDS011;24062;47.480;8.768;2022-08-26T10:17:58;4.78;;;4.13;;
38264;SDS011;24062;47.480;8.768;2022-08-26T10:20:30;4.13;;;3.75;;
38264;SDS011;24062;47.480;8.768;2022-08-26T10:23:01;6.03;;;3.67;;
38264;SDS011;24062;47.480;8.768;2022-08-26T10:25:33;4.63;;;4.10;;
38264;SDS011;24062;47.480;8.768;2022-08-26T10:28:11;4.57;;;3.72;;
38264;SDS011;24062;47.480;8.768;2022-08-26T10:30:49;4.35;;;3.00;;
38264;SDS011;24062;47.480;8.768;2022-08-26T10:33:26;4.10;;;3.70;;
38264;SDS011;24062;47.480;8.768;2022-08-26T10:35:54;4.43;;;3.80;;
38264;SDS011;24062;47.480;8.768;2022-08-26T10:38:24;5.55;;;3.88;;
38264;SDS011;24062;47.480;8.768;2022-08-26T10:40:57;4.22;;;3.70;;
38264;SDS011;24062;47.480;8.768;2022-08-26T10:43:30;7.70;;;3.60;;
38264;SDS011;24062;47.480;8.768;2022-08-26T10:46:04;3.10;;;2.80;;
38264;SDS011;24062;47.480;8.768;2022-08-26T10:48:39;3.40;;;3.10;;
38264;SDS011;24062;47.480;8.768;2022-08-26T10:51:11;5.78;;;3.83;;
38264;SDS011;24062;47.480;8.768;2022-08-26T10:53:44;13.25;;;3.40;;
38264;SDS011;24062;47.480;8.768;2022-08-26T10:56:21;3.95;;;3.40;;
38264;SDS011;24062;47.480;8.768;2022-08-26T10:58:57;4.82;;;3.00;;
38264;SDS011;24062;47.480;8.768;2022-08-26T11:01:31;4.20;;;3.30;;
38264;SDS011;24062;47.480;8.768;2022-08-26T11:04:12;8.77;;;3.50;;
38264;SDS011;24062;47.480;8.768;2022-08-26T11:06:46;3.80;;;3.50;;
38264;SDS011;24062;47.480;8.768;2022-08-26T11:12:08;3.58;;;3.28;;
38264;SDS011;24062;47.480;8.768;2022-08-26T11:14:35;6.65;;;3.22;;
38264;SDS011;24062;47.480;8.768;2022-08-26T11:17:05;5.20;;;2.85;;
38264;SDS011;24062;47.480;8.768;2022-08-26T11:22:28;6.10;;;3.10;;
38264;SDS011;24062;47.480;8.768;2022-08-26T11:25:01;18.05;;;3.47;;
38264;SDS011;24062;47.480;8.768;2022-08-26T11:30:35;3.55;;;3.25;;
38264;SDS011;24062;47.480;8.768;2022-08-26T11:39:26;3.17;;;2.88;;
38264;SDS011;24062;47.480;8.768;2022-08-26T11:41:57;3.15;;;2.85;;
38264;SDS011;24062;47.480;8.768;2022-08-26T11:44:34;6.10;;;3.65;;
38264;SDS011;24062;47.480;8.768;2022-08-26T11:47:03;4.10;;;3.58;;
38264;SDS011;24062;47.480;8.768;2022-08-26T11:49:34;3.17;;;2.50;;
38264;SDS011;24062;47.480;8.768;2022-08-26T11:52:10;3.20;;;2.90;;
38264;SDS011;24062;47.480;8.768;2022-08-26T11:57:25;3.83;;;2.90;;
38264;SDS011;24062;47.480;8.768;2022-08-26T11:59:53;3.83;;;2.97;;
38264;SDS011;24062;47.480;8.768;2022-08-26T12:02:21;2.67;;;2.47;;
38264;SDS011;24062;47.480;8.768;2022-08-26T12:04:49;2.30;;;2.00;;
38264;SDS011;24062;47.480;8.768;2022-08-26T12:07:21;3.05;;;2.75;;
38264;SDS011;24062;47.480;8.768;2022-08-26T12:09:55;5.03;;;3.13;;
38264;SDS011;24062;47.480;8.768;2022-08-26T12:12:25;3.35;;;2.97;;
38264;SDS011;24062;47.480;8.768;2022-08-26T12:17:46;5.43;;;2.78;;
38264;SDS011;24062;47.480;8.768;2022-08-26T12:20:28;2.63;;;2.42;;
38264;SDS011;24062;47.480;8.768;2022-08-26T12:23:11;2.95;;;2.58;;
38264;SDS011;24062;47.480;8.768;2022-08-26T12:25:47;2.72;;;2.15;;
38264;SDS011;24062;47.480;8.768;2022-08-26T12:28:15;4.63;;;2.40;;
38264;SDS011;24062;47.480;8.768;2022-08-26T12:30:57;4.20;;;2.38;;
38264;SDS011;24062;47.480;8.768;2022-08-26T12:33:24;8.73;;;2.35;;
38264;SDS011;24062;47.480;8.768;2022-08-26T12:35:52;6.43;;;2.75;;
38264;SDS011;24062;47.480;8.768;2022-08-26T12:38:21;3.95;;;2.33;;
38264;SDS011;24062;47.480;8.768;2022-08-26T12:40:49;5.63;;;2.83;;
38264;SDS011;24062;47.480;8.768;2022-08-26T12:46:02;8.32;;;2.88;;
38264;SDS011;24062;47.480;8.768;2022-08-26T12:48:30;4.75;;;3.08;;
38264;SDS011;24062;47.480;8.768;2022-08-26T12:50:59;2.85;;;2.42;;
38264;SDS011;24062;47.480;8.768;2022-08-26T12:53:29;9.90;;;2.90;;
38264;SDS011;24062;47.480;8.768;2022-08-26T12:55:58;4.22;;;2.13;;
38264;SDS011;24062;47.480;8.768;2022-08-26T12:58:28;4.90;;;2.10;;
38264;SDS011;24062;47.480;8.768;2022-08-26T13:00:56;4.05;;;2.13;;
38264;SDS011;24062;47.480;8.768;2022-08-26T13:03:44;3.60;;;2.00;;
38264;SDS011;24062;47.480;8.768;2022-08-26T13:06:17;3.42;;;2.42;;
38264;SDS011;24062;47.480;8.768;2022-08-26T13:08:53;3.28;;;2.10;;
38264;SDS011;24062;47.480;8.768;2022-08-26T13:11:23;3.95;;;1.80;;
38264;SDS011;24062;47.480;8.768;2022-08-26T13:13:52;3.40;;;2.42;;
38264;SDS011;24062;47.480;8.768;2022-08-26T13:16:22;3.50;;;1.90;;
38264;SDS011;24062;47.480;8.768;2022-08-26T13:18:50;3.30;;;2.00;;
38264;SDS011;24062;47.480;8.768;2022-08-26T13:21:19;4.32;;;1.80;;
38264;SDS011;24062;47.480;8.768;2022-08-26T13:23:47;2.38;;;1.83;;
38264;SDS011;24062;47.480;8.768;2022-08-26T13:26:16;3.15;;;2.65;;
38264;SDS011;24062;47.480;8.768;2022-08-26T13:28:43;4.72;;;2.03;;
38264;SDS011;24062;47.480;8.768;2022-08-26T13:31:10;3.33;;;1.73;;
38264;SDS011;24062;47.480;8.768;2022-08-26T13:33:38;2.00;;;1.80;;
38264;SDS011;24062;47.480;8.768;2022-08-26T13:36:06;2.25;;;1.85;;
38264;SDS011;24062;47.480;8.768;2022-08-26T13:38:33;2.63;;;1.95;;
38264;SDS011;24062;47.480;8.768;2022-08-26T13:41:00;2.67;;;2.00;;
38264;SDS011;24062;47.480;8.768;2022-08-26T13:43:29;3.42;;;2.00;;
38264;SDS011;24062;47.480;8.768;2022-08-26T13:45:56;3.25;;;1.90;;
38264;SDS011;24062;47.480;8.768;2022-08-26T13:48:25;2.10;;;1.90;;
38264;SDS011;24062;47.480;8.768;2022-08-26T13:50:52;5.20;;;2.15;;
38264;SDS011;24062;47.480;8.768;2022-08-26T13:53:19;4.50;;;1.77;;
38264;SDS011;24062;47.480;8.768;2022-08-26T13:55:47;4.03;;;2.78;;
38264;SDS011;24062;47.480;8.768;2022-08-26T13:58:14;4.13;;;2.03;;
38264;SDS011;24062;47.480;8.768;2022-08-26T14:00:42;3.10;;;2.03;;
38264;SDS011;24062;47.480;8.768;2022-08-26T14:03:09;6.10;;;2.00;;
38264;SDS011;24062;47.480;8.768;2022-08-26T14:05:36;2.67;;;1.77;;
38264;SDS011;24062;47.480;8.768;2022-08-26T14:08:03;2.28;;;2.00;;
38264;SDS011;24062;47.480;8.768;2022-08-26T14:10:30;2.92;;;1.67;;
38264;SDS011;24062;47.480;8.768;2022-08-26T14:12:58;3.08;;;2.00;;
38264;SDS011;24062;47.480;8.768;2022-08-26T14:15:24;6.57;;;1.80;;
38264;SDS011;24062;47.480;8.768;2022-08-26T14:17:53;3.28;;;2.05;;
38264;SDS011;24062;47.480;8.768;2022-08-26T14:20:21;4.78;;;2.40;;
38264;SDS011;24062;47.480;8.768;2022-08-26T14:22:51;4.78;;;2.38;;
38264;SDS011;24062;47.480;8.768;2022-08-26T14:25:18;2.67;;;1.60;;
38264;SDS011;24062;47.480;8.768;2022-08-26T14:27:46;2.63;;;2.10;;
38264;SDS011;24062;47.480;8.768;2022-08-26T14:30:13;3.05;;;1.42;;
38264;SDS011;24062;47.480;8.768;2022-08-26T14:32:42;5.70;;;2.03;;
38264;SDS011;24062;47.480;8.768;2022-08-26T14:35:14;4.45;;;1.90;;
38264;SDS011;24062;47.480;8.768;2022-08-26T14:37:43;3.28;;;1.63;;
38264;SDS011;24062;47.480;8.768;2022-08-26T14:40:10;3.75;;;2.05;;
38264;SDS011;24062;47.480;8.768;2022-08-26T14:42:38;5.00;;;1.90;;
38264;SDS011;24062;47.480;8.768;2022-08-26T14:45:06;2.65;;;1.75;;
38264;SDS011;24062;47.480;8.768;2022-08-26T14:47:37;5.07;;;2.40;;
38264;SDS011;24062;47.480;8.768;2022-08-26T14:50:04;2.80;;;1.95;;
38264;SDS011;24062;47.480;8.768;2022-08-26T14:52:33;3.92;;;2.08;;
38264;SDS011;24062;47.480;8.768;2022-08-26T14:55:20;4.10;;;2.15;;
38264;SDS011;24062;47.480;8.768;2022-08-26T14:57:46;2.45;;;2.25;;
38264;SDS011;24062;47.480;8.768;2022-08-26T15:00:13;5.82;;;1.58;;
38264;SDS011;24062;47.480;8.768;2022-08-26T15:02:40;3.05;;;2.13;;
38264;SDS011;24062;47.480;8.768;2022-08-26T15:05:08;3.38;;;1.98;;
38264;SDS011;24062;47.480;8.768;2022-08-26T15:07:37;2.63;;;1.80;;
38264;SDS011;24062;47.480;8.768;2022-08-26T15:10:05;5.45;;;2.13;;
38264;SDS011;24062;47.480;8.768;2022-08-26T15:12:35;6.10;;;2.70;;
38264;SDS011;24062;47.480;8.768;2022-08-26T15:15:02;2.67;;;2.33;;
38264;SDS011;24062;47.480;8.768;2022-08-26T15:17:30;3.10;;;2.70;;
38264;SDS011;24062;47.480;8.768;2022-08-26T15:19:56;7.57;;;2.55;;
38264;SDS011;24062;47.480;8.768;2022-08-26T15:22:23;4.82;;;2.75;;
38264;SDS011;24062;47.480;8.768;2022-08-26T15:24:52;2.95;;;2.65;;
38264;SDS011;24062;47.480;8.768;2022-08-26T15:27:19;3.33;;;2.53;;